Terminal Aerodrome Forecast
Issued by NWS

Home | Current Version | Previous Version | Graphics & Text | Print | Product List | Glossary On
Versions: 1 2 3 4 5 6 7 8 9 10 11 12 13 14 15 16 17
000
FTUS43 KBIS 310500
TAFJMS
TAF
KJMS 310536Z 3106/0106 13008KT P6SM BKN005 OVC140
     FM310730 12010KT 5SM TSRA SCT040 OVC090CB
     FM311000 13010KT 6SM -SHRA BR OVC035
     FM311200 13006KT P6SM BKN008
     FM311700 27010KT P6SM BKN030
     FM010000 31009KT P6SM BKN120=

USA.gov is the U.S. government's official web portal to all federal, state and local government web resources and services.